Pauma Valley, CA (92061)

6:10 PM PST en Noviembre 20, 2014 (GMT -0800)
Pauma Heights | Change Station
CLOSE
Current Station
Estación meteorológica personal
Location: Valley Center, CA
Altura: 1565 ft
Estaciones meteorológicas cercanas

Alt 1565 ft 33.28 °N, 117.02 °W | Updated 4 seconds ago

Muy nublado
Muy nublado
57.0 ° F
Sensación térmica 57.0 ° F
N
0.0
Viento Variable Viento desde Norte
Gusts 1.0 mph

Hoy
Alta -- | Baja -- ° F
--% Posibilidad de precipitaciones
Ayer
Alta -- | Baja -- ° F
Precip. -- pul
6:23 AM 4:43 PM
Creciente menguante, 2% visible
Presión 30.03 pul
Visibilidad 10.0 Millas
Nubes Nubes dispersas 1500 ft
Muy nublado 2000 ft
Punto de rocío 54 ° F
Humedad 91%
Precipitaciones 0.00 pul
Espesor de la nieve No disponible.
UV 0 de una escala de 12
Polen 2.30 de una escala de 12
Calidad del aire No disponible.
Flu Activity No disponible.
METAR KRNM 210153Z 29004KT 10SM SCT015 BKN020 14/12 A3003 RMK AO2 SLP167 T01390117

More Conditions Fewer Conditions

Presión 30.03 pul
Visibilidad 10.0 Millas
Nubes Nubes dispersas 1500 ft
Muy nublado 2000 ft
Punto de rocío 54 ° F
Humedad 91%
Precipitaciones 0.00 pul
Espesor de la nieve No disponible.
UV 0 de una escala de 12
Polen 2.30 de una escala de 12
Calidad del aire No disponible.
Flu Activity No disponible.
METAR KRNM 210153Z 29004KT 10SM SCT015 BKN020 14/12 A3003 RMK AO2 SLP167 T01390117

More Conditions Fewer Conditions

10-Day Weather Forecast

Almanac

Astronomía

Nov. 20, 2014 Salida Puesta
Hora real
Crepúsculo civil
Crepúsculo náutico
Crepúsculo astronómico
Luna
Horas de luz
Horas de luz
Tomorrow will be .
, % of the Moon is Illuminated

Extremos de hoy

Máximos del estado Bajos del estado

Community

WunderPhotos

Upload Photos

1,772,585 ¡fotos cargadas!

WunderBlogs® & News

Nearby

Calidad del aire

  Calidad del aire Índice AQ Contaminante
Not available.

Grosos de nieve

Estación Profundido Altura

Actividad de terremotos

Ciudad Distance Mag. Tiempo y dato
Magnitud mínima muestra es 2,5.

Temperaturas de aguas costeras

Lugar Temperatura

Estaciones meteorológicas cercanas